Time;durP1;ratioP1;P1;durP2;ratioP2;P2;SDS_P1;SDS_P2;PMS_P1;PMS_P2;Temp;Humidity;BMP_temperature;BMP_pressure;BME280_temperature;BME280_humidity;BME280_pressure;Samples;Min_cycle;Max_cycle;Signal;HPM_P1;HPM_P2
2021/09/19 00:01:07;;;;;;;16.07;14.55;;;;;;;23.00;55.33;100916.37;1768952;80;21022;-51
2021/09/19 00:03:34;;;;;;;16.62;15.23;;;;;;;22.99;55.36;100912.50;1767091;80;21073;-48
2021/09/19 00:06:00;;;;;;;16.05;14.50;;;;;;;22.98;55.43;100920.11;1765424;80;21041;-49
2021/09/19 00:08:27;;;;;;;15.63;14.13;;;;;;;22.95;55.40;100918.52;1766353;80;21553;-47
2021/09/19 00:10:57;;;;;;;16.15;14.58;;;;;;;22.94;55.28;100916.80;1775737;80;20982;-50
2021/09/19 00:13:25;;;;;;;16.93;15.13;;;;;;;22.91;55.38;100921.48;1768069;80;21002;-51
2021/09/19 00:15:52;;;;;;;20.52;17.30;;;;;;;22.90;55.27;100917.12;1779264;80;20977;-48
2021/09/19 00:18:21;;;;;;;29.35;20.37;;;;;;;22.89;55.20;100918.09;1770273;80;21018;-47
2021/09/19 00:20:49;;;;;;;32.08;20.95;;;;;;;22.89;55.09;100919.42;1766021;80;21627;-51
2021/09/19 00:23:16;;;;;;;28.90;20.25;;;;;;;22.88;55.02;100919.89;1769325;80;21033;-47
2021/09/19 00:25:43;;;;;;;25.08;19.37;;;;;;;22.86;54.91;100915.64;1780660;80;21030;-50
2021/09/19 00:28:10;;;;;;;22.75;20.35;;;;;;;22.83;54.73;100914.55;1765969;80;21073;-48
2021/09/19 00:30:38;;;;;;;24.70;19.07;;;;;;;22.81;54.78;100919.11;1768165;80;21485;-47
2021/09/19 00:33:07;;;;;;;21.45;18.95;;;;;;;22.80;54.59;100928.01;1768647;80;21012;-47
2021/09/19 00:35:35;;;;;;;24.70;20.57;;;;;;;22.78;54.50;100928.59;1768498;80;21041;-50
2021/09/19 00:38:02;;;;;;;25.97;20.15;;;;;;;22.75;54.65;100931.47;1768649;80;21034;-49
2021/09/19 00:40:29;;;;;;;23.87;20.17;;;;;;;22.74;54.76;100933.73;1768841;80;21011;-48
2021/09/19 00:42:55;;;;;;;28.90;20.95;;;;;;;22.71;54.67;100931.31;1767044;80;21541;-53
2021/09/19 00:45:25;;;;;;;25.95;21.27;;;;;;;22.67;54.57;100922.70;1769149;80;21031;-50
2021/09/19 00:47:52;;;;;;;25.75;21.27;;;;;;;22.63;54.39;100922.07;1766671;80;21553;-48
2021/09/19 00:50:22;;;;;;;28.90;21.23;;;;;;;22.60;54.45;100927.61;1765785;80;21033;-47
2021/09/19 00:52:49;;;;;;;27.40;21.97;;;;;;;22.58;54.34;100930.84;1782904;80;21002;-50
2021/09/19 00:55:16;;;;;;;29.52;22.15;;;;;;;22.55;54.33;100933.66;1767175;80;21484;-49
2021/09/19 00:57:46;;;;;;;26.15;21.57;;;;;;;22.51;54.09;100932.16;1766543;80;20994;-50
2021/09/19 01:00:19;;;;;;;27.62;21.55;;;;;;;22.48;54.05;100932.36;1765787;80;20985;-47
2021/09/19 01:02:46;;;;;;;;;;;;;;;22.46;54.07;100930.29;1769415;80;21026;-50
2021/09/19 01:05:16;;;;;;;24.72;20.57;;;;;;;22.43;54.09;100934.48;1768185;80;20509;-51
2021/09/19 01:07:44;;;;;;;29.60;20.90;;;;;;;22.38;54.21;100944.55;1769582;80;21027;-50
2021/09/19 01:10:13;;;;;;;22.48;19.77;;;;;;;22.35;54.20;100947.42;1769703;80;21014;-49
2021/09/19 01:12:42;;;;;;;22.93;20.10;;;;;;;22.35;54.58;100954.52;1769379;80;20983;-53
2021/09/19 01:15:12;;;;;;;29.85;21.90;;;;;;;22.32;54.56;100952.91;1776376;80;21029;-49
2021/09/19 01:17:41;;;;;;;26.12;19.67;;;;;;;22.28;54.23;100948.77;1766585;80;20995;-49
2021/09/19 01:20:13;;;;;;;23.45;19.90;;;;;;;22.26;54.11;100949.35;1768805;80;21030;-47
2021/09/19 01:22:48;;;;;;;22.50;18.87;;;;;;;22.25;54.09;100950.31;1777480;80;21034;-49
2021/09/19 01:25:16;;;;;;;17.45;15.65;;;;;;;22.24;54.10;100943.30;1766101;80;21010;-51
2021/09/19 01:27:45;;;;;;;20.45;16.62;;;;;;;22.21;54.04;100939.55;1766145;80;21578;-52
2021/09/19 01:30:13;;;;;;;15.53;13.98;;;;;;;22.19;54.05;100945.42;1766614;80;21011;-51
2021/09/19 01:32:41;;;;;;;14.85;13.55;;;;;;;22.18;54.23;100946.83;1767482;80;21073;-51
2021/09/19 01:35:10;;;;;;;14.30;13.10;;;;;;;22.17;54.21;100946.01;1769278;80;20999;-48
2021/09/19 01:37:38;;;;;;;14.75;13.35;;;;;;;22.15;54.15;100943.94;1780171;80;21530;-48
2021/09/19 01:40:08;;;;;;;14.38;13.08;;;;;;;22.14;54.23;100946.20;1769400;80;21046;-48
2021/09/19 01:42:37;;;;;;;13.62;12.43;;;;;;;22.12;54.28;100948.09;1766457;80;20995;-53
2021/09/19 01:45:06;;;;;;;14.75;13.18;;;;;;;22.12;54.41;100948.09;1766755;80;21522;-50
2021/09/19 01:47:32;;;;;;;13.72;12.37;;;;;;;22.11;54.36;100943.77;1768440;80;21568;-47
2021/09/19 01:50:01;;;;;;;13.98;12.58;;;;;;;22.10;54.38;100943.84;1782287;80;21065;-48
2021/09/19 01:52:30;;;;;;;14.87;13.43;;;;;;;22.08;54.37;100938.66;1771520;80;21505;-49
2021/09/19 01:55:00;;;;;;;14.68;12.88;;;;;;;22.07;54.31;100935.61;1764546;80;21018;-50
2021/09/19 01:57:27;;;;;;;14.38;12.98;;;;;;;22.05;54.57;100937.52;1767198;80;21018;-48
2021/09/19 01:59:56;;;;;;;15.72;14.13;;;;;;;22.02;54.65;100935.55;1769842;80;21554;-51
2021/09/19 02:02:22;;;;;;;17.12;14.60;;;;;;;22.01;54.68;100942.64;1769559;80;21006;-49
2021/09/19 02:04:52;;;;;;;16.65;14.95;;;;;;;22.02;54.77;100944.83;1773065;80;21014;-47
2021/09/19 02:07:19;;;;;;;16.05;14.38;;;;;;;22.01;54.94;100942.64;1774499;80;21297;-47
2021/09/19 02:09:46;;;;;;;15.08;13.48;;;;;;;22.02;55.06;100939.06;1773636;80;21018;-51
2021/09/19 02:12:14;;;;;;;15.23;13.75;;;;;;;22.02;54.99;100936.41;1771952;80;21585;-48
2021/09/19 02:14:43;;;;;;;15.45;13.95;;;;;;;22.01;55.01;100936.02;1771055;80;21048;-50
2021/09/19 02:17:12;;;;;;;15.80;14.03;;;;;;;22.02;54.98;100943.50;1772137;80;20997;-47
2021/09/19 02:19:41;;;;;;;15.35;13.75;;;;;;;22.02;54.88;100944.83;1781328;80;21490;-50
2021/09/19 02:22:11;;;;;;;16.75;15.03;;;;;;;22.02;54.80;100948.34;1772491;80;21053;-48
2021/09/19 02:24:38;;;;;;;16.95;14.68;;;;;;;22.01;54.78;100950.59;1774621;80;21005;-48
2021/09/19 02:27:06;;;;;;;17.00;15.28;;;;;;;21.99;54.69;100951.17;1771886;80;21040;-49
2021/09/19 02:29:34;;;;;;;16.60;14.90;;;;;;;21.98;54.51;100953.47;1771000;80;21002;-51
2021/09/19 02:32:04;;;;;;;17.60;14.75;;;;;;;21.98;54.29;100953.93;1772977;80;21052;-51
2021/09/19 02:34:32;;;;;;;19.98;15.43;;;;;;;21.95;54.37;100951.00;1774031;80;21041;-50
2021/09/19 02:37:01;;;;;;;18.73;16.40;;;;;;;21.92;54.36;100948.56;1774372;80;21510;-49
2021/09/19 02:39:27;;;;;;;22.93;17.27;;;;;;;21.91;54.21;100951.33;1774703;80;21033;-50
2021/09/19 02:41:54;;;;;;;21.60;17.90;;;;;;;21.88;54.29;100943.56;1774577;80;21042;-51
2021/09/19 02:44:22;;;;;;;21.73;17.67;;;;;;;21.85;54.23;100948.11;1773151;80;21014;-53
2021/09/19 02:46:50;;;;;;;19.48;16.70;;;;;;;21.83;54.49;100941.21;1775861;80;21022;-47
2021/09/19 02:49:18;;;;;;;18.32;15.28;;;;;;;21.82;54.24;100947.47;1782095;80;21478;-48
2021/09/19 02:51:47;;;;;;;17.90;14.75;;;;;;;21.79;54.25;100947.62;1775645;80;21072;-51
2021/09/19 02:54:13;;;;;;;15.40;13.83;;;;;;;21.77;54.25;100942.91;1773698;80;20998;-48
2021/09/19 02:56:42;;;;;;;14.75;13.30;;;;;;;21.75;54.39;100939.50;1771778;80;21057;-50
2021/09/19 02:59:10;;;;;;;14.07;12.78;;;;;;;21.72;54.43;100941.87;1778173;80;20985;-49
2021/09/19 03:01:38;;;;;;;13.95;12.70;;;;;;;21.71;54.50;100945.95;1769366;80;20997;-50
2021/09/19 03:04:05;;;;;;;14.30;12.90;;;;;;;21.69;54.58;100942.55;1776400;80;21497;-48
2021/09/19 03:06:31;;;;;;;16.20;13.25;;;;;;;21.68;54.56;100947.45;1774711;80;20997;-50
2021/09/19 03:08:59;;;;;;;13.35;12.15;;;;;;;21.67;54.50;100947.09;1774151;80;21018;-51
2021/09/19 03:11:26;;;;;;;13.70;12.43;;;;;;;21.66;54.59;100952.00;1774263;80;21065;-48
2021/09/19 03:13:54;;;;;;;13.13;11.80;;;;;;;21.65;54.32;100955.61;1770912;80;21565;-50
2021/09/19 03:16:23;;;;;;;13.95;12.50;;;;;;;21.63;53.94;100965.46;1775517;80;21026;-52
2021/09/19 03:18:51;;;;;;;12.80;11.53;;;;;;;21.59;53.85;100966.61;1771255;80;20978;-48
2021/09/19 03:21:19;;;;;;;11.75;10.75;;;;;;;21.55;53.69;100959.80;1770946;80;21525;-50
2021/09/19 03:23:46;;;;;;;12.75;11.65;;;;;;;21.50;53.43;100965.85;1773735;80;20926;-50
2021/09/19 03:26:13;;;;;;;13.03;11.78;;;;;;;21.45;53.49;100969.28;1774179;80;21501;-48
2021/09/19 03:28:42;;;;;;;13.32;12.03;;;;;;;21.38;53.58;100973.25;1777548;80;20983;-48
2021/09/19 03:31:09;;;;;;;12.60;11.48;;;;;;;21.33;53.67;100972.70;1774317;80;20963;-47
2021/09/19 03:33:37;;;;;;;13.28;11.93;;;;;;;21.31;53.88;100981.22;1772358;80;21502;-51
2021/09/19 03:36:05;;;;;;;13.60;12.20;;;;;;;21.30;53.94;100982.14;1771207;80;21018;-48
2021/09/19 03:38:32;;;;;;;13.75;12.35;;;;;;;21.28;53.92;100978.74;1771703;80;21002;-48
2021/09/19 03:40:58;;;;;;;12.85;11.65;;;;;;;21.26;53.79;100976.20;1774176;80;20998;-48
2021/09/19 03:43:25;;;;;;;13.25;12.03;;;;;;;21.21;53.87;100974.77;1786439;80;20970;-50
2021/09/19 03:45:51;;;;;;;12.65;11.48;;;;;;;21.18;53.92;100976.30;1785183;80;21001;-49
2021/09/19 03:48:18;;;;;;;12.40;11.30;;;;;;;21.16;54.20;100964.95;1772924;80;21041;-48
2021/09/19 03:50:45;;;;;;;11.63;10.65;;;;;;;21.15;54.21;100965.88;1773282;80;20991;-48
2021/09/19 03:53:12;;;;;;;12.50;11.40;;;;;;;21.13;54.25;100970.42;1771908;80;21022;-48
2021/09/19 03:55:39;;;;;;;12.47;11.38;;;;;;;21.06;54.43;100963.36;1771284;80;21021;-51
2021/09/19 03:58:06;;;;;;;12.53;11.43;;;;;;;21.05;54.73;100966.94;1770946;80;21013;-49
2021/09/19 04:00:33;;;;;;;12.58;11.38;;;;;;;21.04;55.12;100967.40;1773238;80;21017;-53
2021/09/19 04:02:59;;;;;;;12.15;11.05;;;;;;;21.06;55.30;100962.86;1774351;80;21021;-47
2021/09/19 04:05:26;;;;;;;12.13;11.03;;;;;;;21.10;55.52;100967.98;1770036;80;21025;-47
2021/09/19 04:07:53;;;;;;;13.70;11.25;;;;;;;21.13;55.70;100970.42;1768841;80;20979;-53
2021/09/19 04:10:20;;;;;;;11.63;10.63;;;;;;;21.16;55.88;100970.25;1768955;80;21053;-51
2021/09/19 04:12:47;;;;;;;11.35;10.38;;;;;;;21.19;55.87;100974.87;1766674;80;21496;-51
2021/09/19 04:15:14;;;;;;;10.90;9.98;;;;;;;21.22;55.67;100977.80;1770229;80;21029;-47
2021/09/19 04:17:42;;;;;;;12.00;10.85;;;;;;;21.24;55.67;100974.59;1769702;80;21032;-50
2021/09/19 04:20:12;;;;;;;12.15;10.95;;;;;;;21.27;55.53;100983.67;1771670;80;21025;-52
2021/09/19 04:22:41;;;;;;;12.47;11.35;;;;;;;21.30;55.41;100996.70;1769052;80;21529;-52
2021/09/19 04:25:10;;;;;;;12.58;11.45;;;;;;;21.33;55.14;101003.14;1768792;80;20978;-46
2021/09/19 04:27:38;;;;;;;11.83;10.80;;;;;;;21.33;55.00;100993.88;1770178;80;21017;-48
2021/09/19 04:30:07;;;;;;;12.35;11.20;;;;;;;21.33;54.82;100991.23;1767647;80;21499;-50
2021/09/19 04:32:36;;;;;;;13.62;10.95;;;;;;;21.33;54.66;100999.17;1771894;80;21013;-49
2021/09/19 04:35:04;;;;;;;12.43;11.22;;;;;;;21.33;54.45;100996.53;1764740;80;21001;-49
2021/09/19 04:37:32;;;;;;;11.95;10.80;;;;;;;21.33;54.53;101001.82;1765651;80;21006;-47
2021/09/19 04:39:59;;;;;;;12.47;11.28;;;;;;;21.32;54.45;100994.81;1768329;80;21029;-47
2021/09/19 04:42:27;;;;;;;11.93;10.72;;;;;;;21.32;54.30;100998.78;1768929;80;20994;-52
2021/09/19 04:44:54;;;;;;;12.45;11.33;;;;;;;21.32;54.36;101002.75;1779496;80;21029;-49
2021/09/19 04:47:21;;;;;;;11.97;10.88;;;;;;;21.30;54.30;100999.34;1766150;80;20999;-48
2021/09/19 04:49:48;;;;;;;12.53;11.22;;;;;;;21.30;54.29;101005.97;1762243;80;21509;-50
2021/09/19 04:52:15;;;;;;;12.13;10.93;;;;;;;21.30;54.34;101005.50;1768744;80;21064;-47
2021/09/19 04:54:44;;;;;;;11.85;10.80;;;;;;;21.33;54.53;101009.77;1769092;80;21026;-48
2021/09/19 04:57:10;;;;;;;11.97;10.75;;;;;;;21.33;54.54;101011.09;1768709;80;21061;-50
2021/09/19 04:59:38;;;;;;;10.80;9.78;;;;;;;21.32;54.62;101007.58;1769055;80;21022;-48
2021/09/19 05:02:05;;;;;;;11.03;10.10;;;;;;;21.32;54.85;101007.58;1766756;80;21021;-49
2021/09/19 05:04:33;;;;;;;11.93;10.20;;;;;;;21.33;54.74;101001.33;1765978;80;21509;-51
2021/09/19 05:07:01;;;;;;;11.73;10.72;;;;;;;21.33;54.71;101013.23;1766727;80;21017;-51
2021/09/19 05:09:28;;;;;;;11.28;10.15;;;;;;;21.34;54.90;101011.45;1768788;80;21033;-49
2021/09/19 05:11:56;;;;;;;10.98;9.93;;;;;;;21.37;54.78;101007.30;1780832;80;21011;-49
2021/09/19 05:14:25;;;;;;;12.18;10.55;;;;;;;21.39;54.79;101008.06;1771771;80;21506;-48
2021/09/19 05:16:53;;;;;;;11.08;10.08;;;;;;;21.42;54.77;101009.17;1762049;80;21002;-48
2021/09/19 05:19:21;;;;;;;10.63;9.53;;;;;;;21.44;54.68;101010.78;1768853;80;21040;-47
2021/09/19 05:21:49;;;;;;;11.70;10.60;;;;;;;21.45;54.55;101006.34;1774281;80;21021;-50
2021/09/19 05:24:16;;;;;;;10.63;9.63;;;;;;;21.42;54.56;101001.23;1767604;80;21494;-49
2021/09/19 05:26:44;;;;;;;10.50;9.60;;;;;;;21.39;54.80;100998.79;1769691;80;21218;-50
2021/09/19 05:29:11;;;;;;;11.12;10.13;;;;;;;21.39;54.92;100998.30;1770147;80;21525;-46
2021/09/19 05:31:37;;;;;;;10.55;9.63;;;;;;;21.39;55.06;100997.47;1768667;80;21017;-50
2021/09/19 05:34:05;;;;;;;11.45;10.45;;;;;;;21.41;55.37;101000.87;1769240;80;21475;-48
2021/09/19 05:36:32;;;;;;;10.40;9.50;;;;;;;21.46;56.02;100998.77;1768826;80;21077;-48
2021/09/19 05:38:59;;;;;;;9.15;8.35;;;;;;;21.53;56.12;101007.58;1767499;80;21050;-47
2021/09/19 05:41:26;;;;;;;9.85;8.90;;;;;;;21.60;56.13;100998.73;1765640;80;21037;-51
2021/09/19 05:43:55;;;;;;;9.80;8.90;;;;;;;21.67;56.25;100998.73;1765911;80;20998;-49
2021/09/19 05:46:21;;;;;;;10.25;9.13;;;;;;;21.72;56.13;101013.38;1770160;80;21002;-47
2021/09/19 05:48:49;;;;;;;9.28;8.45;;;;;;;21.77;56.28;101011.30;1774717;80;21053;-46
2021/09/19 05:51:16;;;;;;;8.83;8.03;;;;;;;21.86;56.20;101016.03;1769286;80;20978;-51
2021/09/19 05:53:43;;;;;;;9.63;8.73;;;;;;;21.97;56.20;101010.04;1756904;80;20997;-48
2021/09/19 05:56:12;;;;;;;8.85;8.05;;;;;;;22.08;55.79;101011.53;1758403;80;21104;-51
2021/09/19 05:58:39;;;;;;;8.05;7.35;;;;;;;22.20;55.60;101009.40;1770158;80;21017;-49
2021/09/19 06:01:08;;;;;;;8.38;7.58;;;;;;;22.32;55.10;101004.61;1767119;80;21009;-48
2021/09/19 06:03:34;;;;;;;8.63;7.83;;;;;;;22.43;54.71;101006.09;1768215;80;21070;-47
2021/09/19 06:06:01;;;;;;;8.53;7.80;;;;;;;22.51;54.26;101011.72;1770832;80;21552;-47
2021/09/19 06:08:29;;;;;;;8.90;8.13;;;;;;;22.58;54.16;101013.06;1777274;80;21053;-50
2021/09/19 06:10:56;;;;;;;9.83;7.78;;;;;;;22.65;54.27;101010.34;1767572;80;21533;-47
2021/09/19 06:13:24;;;;;;;8.18;7.47;;;;;;;22.75;54.29;101013.72;1781114;80;21025;-48
2021/09/19 06:15:51;;;;;;;12.90;10.50;;;;;;;22.83;54.25;101005.61;1774656;80;21085;-47
2021/09/19 06:18:20;;;;;;;18.95;14.60;;;;;;;22.93;54.13;101004.49;1774182;80;21493;-47
2021/09/19 06:20:46;;;;;;;22.20;15.93;;;;;;;22.99;54.08;100996.96;1774318;80;20986;-48
2021/09/19 06:23:15;;;;;;;21.73;15.15;;;;;;;23.05;53.40;100995.20;1774183;80;21053;-48
2021/09/19 06:25:41;;;;;;;17.05;13.18;;;;;;;23.10;53.20;100999.70;1773895;80;21041;-48
2021/09/19 06:28:10;;;;;;;12.18;10.88;;;;;;;23.16;52.92;101001.09;1771295;80;21009;-49
2021/09/19 06:30:37;;;;;;;10.98;9.88;;;;;;;23.21;52.82;101000.28;1771213;80;21522;-50
2021/09/19 06:33:03;;;;;;;10.65;9.65;;;;;;;23.23;52.72;101008.52;1773743;80;21054;-52
2021/09/19 06:35:30;;;;;;;9.93;8.40;;;;;;;23.29;52.94;101009.88;1772505;80;21072;-48
2021/09/19 06:37:57;;;;;;;8.98;6.78;;;;;;;23.33;53.01;101011.39;1774255;80;21451;-50
2021/09/19 06:40:26;;;;;;;7.08;6.47;;;;;;;23.38;52.30;101007.95;1770860;80;21013;-51
2021/09/19 06:42:52;;;;;;;7.50;6.80;;;;;;;23.42;52.17;101010.77;1785933;80;21049;-48
2021/09/19 06:45:19;;;;;;;8.23;7.40;;;;;;;23.44;51.64;101009.70;1773087;80;20983;-48
2021/09/19 06:47:45;;;;;;;6.70;6.10;;;;;;;23.47;51.35;101009.97;1776066;80;20998;-50
2021/09/19 06:50:12;;;;;;;7.12;6.53;;;;;;;23.48;51.42;101009.00;1772612;80;20985;-49
2021/09/19 06:52:39;;;;;;;11.53;7.00;;;;;;;23.52;51.27;101009.14;1769476;80;21025;-48
2021/09/19 06:55:09;;;;;;;7.08;6.55;;;;;;;23.57;51.42;101009.68;1774554;80;21001;-46
2021/09/19 06:57:36;;;;;;;7.90;7.12;;;;;;;23.64;51.42;101002.95;1784854;80;20978;-47
2021/09/19 07:00:06;;;;;;;7.67;6.72;;;;;;;23.72;50.97;100997.93;1776632;80;21005;-48
2021/09/19 07:02:33;;;;;;;6.90;6.30;;;;;;;23.83;50.46;100999.34;1778678;80;21492;-50
2021/09/19 07:05:00;;;;;;;8.18;6.25;;;;;;;23.92;50.33;100997.36;1772804;80;21037;-49
2021/09/19 07:07:28;;;;;;;8.00;6.85;;;;;;;23.99;50.18;101002.57;1761814;80;21572;-49
2021/09/19 07:09:55;;;;;;;7.62;6.95;;;;;;;24.06;49.78;101007.00;1767938;80;21033;-50
2021/09/19 07:12:22;;;;;;;9.43;7.30;;;;;;;24.11;49.43;101003.03;1768925;80;21037;-50
2021/09/19 07:14:50;;;;;;;7.00;6.40;;;;;;;24.18;49.93;101009.60;1765835;80;21037;-47
2021/09/19 07:17:17;;;;;;;7.17;6.10;;;;;;;24.24;49.91;101006.48;1771560;80;21065;-47
2021/09/19 07:19:45;;;;;;;7.70;6.50;;;;;;;24.30;49.34;101013.66;1767243;80;21034;-49
2021/09/19 07:22:14;;;;;;;6.72;6.12;;;;;;;24.33;49.37;101016.92;1765485;80;21529;-53
2021/09/19 07:24:42;;;;;;;8.53;5.85;;;;;;;24.37;48.83;101016.20;1765451;80;21018;-51
2021/09/19 07:27:09;;;;;;;9.78;8.85;;;;;;;24.39;48.80;101019.59;1768502;80;20999;-49
2021/09/19 07:29:36;;;;;;;14.18;9.50;;;;;;;24.40;48.57;101018.14;1769650;80;21528;-48
2021/09/19 07:32:07;;;;;;;9.03;8.03;;;;;;;24.44;48.35;101022.78;1767291;80;21056;-50
2021/09/19 07:34:34;;;;;;;7.62;6.90;;;;;;;24.47;48.64;101018.54;1768853;80;21016;-49
2021/09/19 07:37:04;;;;;;;8.23;7.42;;;;;;;24.50;49.04;101013.86;1776178;80;21011;-48
2021/09/19 07:39:33;;;;;;;8.15;7.12;;;;;;;24.54;49.27;101014.47;1766395;80;20993;-53
2021/09/19 07:42:00;;;;;;;9.70;6.95;;;;;;;24.56;49.10;101013.39;1765511;80;20994;-50
2021/09/19 07:44:29;;;;;;;7.42;6.72;;;;;;;24.57;49.45;101016.41;1767004;80;21505;-54
2021/09/19 07:46:56;;;;;;;7.30;6.70;;;;;;;24.57;49.35;101005.77;1768591;80;20974;-48
2021/09/19 07:49:23;;;;;;;11.85;6.45;;;;;;;24.61;49.24;101011.69;1773351;80;21000;-50
2021/09/19 07:51:51;;;;;;;7.33;6.55;;;;;;;24.63;49.39;101015.94;1766741;80;21589;-50
2021/09/19 07:54:20;;;;;;;6.65;6.05;;;;;;;24.67;49.08;101013.88;1765828;80;21056;-49
2021/09/19 07:56:47;;;;;;;6.00;5.50;;;;;;;24.70;48.84;101012.34;1766417;80;20950;-48
2021/09/19 07:59:14;;;;;;;8.08;6.17;;;;;;;24.73;48.38;101010.31;1762290;80;21496;-51
2021/09/19 08:01:42;;;;;;;7.92;6.50;;;;;;;24.78;47.72;101009.97;1770506;80;21001;-51
2021/09/19 08:04:08;;;;;;;21.93;10.48;;;;;;;24.82;47.60;101010.09;1770542;80;21033;-50
2021/09/19 08:06:35;;;;;;;15.65;9.53;;;;;;;24.83;48.38;100998.50;1770977;80;21093;-50
2021/09/19 08:09:02;;;;;;;7.33;6.62;;;;;;;24.85;48.75;101003.22;1765813;80;21053;-50
2021/09/19 08:11:29;;;;;;;11.95;6.87;;;;;;;24.87;48.04;100999.95;1769162;80;20998;-51
2021/09/19 08:14:08;;;;;;;7.47;6.58;;;;;;;24.91;48.20;100997.42;1774016;80;21024;-50
2021/09/19 08:16:40;;;;;;;7.72;6.47;;;;;;;24.94;47.91;100998.50;1775507;80;21002;-50
2021/09/19 08:19:08;;;;;;;7.05;6.25;;;;;;;24.97;47.90;100990.28;1773231;80;21023;-50
2021/09/19 08:21:37;;;;;;;7.50;6.10;;;;;;;24.99;48.16;100990.54;1768025;80;21014;-48
2021/09/19 08:24:06;;;;;;;6.53;5.92;;;;;;;25.04;47.99;100994.15;1766443;80;21090;-51
2021/09/19 08:26:34;;;;;;;5.50;5.05;;;;;;;25.08;47.87;100989.45;1766968;80;20971;-50
2021/09/19 08:29:02;;;;;;;6.58;5.75;;;;;;;25.10;47.58;100992.34;1772059;80;21005;-48
2021/09/19 08:31:30;;;;;;;8.90;5.95;;;;;;;25.12;47.84;100994.42;1768837;80;21033;-50
2021/09/19 08:33:56;;;;;;;6.10;5.60;;;;;;;25.14;48.20;100987.16;1769592;80;20999;-49
2021/09/19 08:36:24;;;;;;;6.30;5.62;;;;;;;25.16;48.10;100985.70;1768211;80;21011;-50
2021/09/19 08:38:52;;;;;;;5.55;5.15;;;;;;;25.17;47.90;100978.92;1765790;80;21052;-49
2021/09/19 08:41:20;;;;;;;5.80;5.30;;;;;;;25.18;47.83;100977.11;1765915;80;21536;-49
2021/09/19 08:43:47;;;;;;;6.78;5.67;;;;;;;25.19;47.81;100980.12;1770293;80;21027;-49
2021/09/19 08:46:17;;;;;;;6.33;5.83;;;;;;;25.19;47.84;100976.13;1779436;80;21097;-46
2021/09/19 08:48:43;;;;;;;8.98;5.83;;;;;;;25.20;47.94;100978.69;1777403;80;21014;-49
2021/09/19 08:51:10;;;;;;;8.68;5.30;;;;;;;25.22;48.21;100976.75;1770016;80;21040;-48
2021/09/19 08:53:37;;;;;;;7.25;5.25;;;;;;;25.25;48.18;100971.17;1767410;80;21018;-49
2021/09/19 08:56:05;;;;;;;9.88;5.25;;;;;;;25.29;47.73;100969.95;1767783;80;21502;-49
2021/09/19 08:58:32;;;;;;;4.87;4.10;;;;;;;25.32;47.57;100975.05;1767013;80;20970;-52
2021/09/19 09:01:01;;;;;;;4.90;3.75;;;;;;;25.36;46.22;100969.84;1765770;80;21018;-47
2021/09/19 09:03:29;;;;;;;5.87;4.22;;;;;;;25.38;45.65;100971.90;1765809;80;20990;-48
2021/09/19 09:05:58;;;;;;;6.28;3.85;;;;;;;25.40;45.27;100959.30;1767049;80;21041;-49
2021/09/19 09:08:26;;;;;;;6.92;3.80;;;;;;;25.44;45.16;100964.78;1769151;80;21053;-48
2021/09/19 09:10:55;;;;;;;4.25;3.85;;;;;;;25.47;45.17;100963.19;1773424;80;21006;-49
2021/09/19 09:13:27;;;;;;;3.65;3.45;;;;;;;25.48;45.71;100958.23;1769019;80;20978;-48
2021/09/19 09:16:13;;;;;;;4.07;3.73;;;;;;;25.49;45.70;100960.42;1755499;81;20994;-47
2021/09/19 09:18:45;;;;;;;4.70;4.30;;;;;;;25.51;45.88;100955.81;1754161;81;21181;-47
2021/09/19 09:21:25;;;;;;;8.43;4.12;;;;;;;25.52;46.31;100955.69;1755636;81;21017;-50
2021/09/19 09:23:55;;;;;;;5.10;3.67;;;;;;;25.54;46.76;100957.73;1754440;81;21560;-47
2021/09/19 09:26:31;;;;;;;3.52;3.22;;;;;;;25.57;46.58;100955.31;1706234;83;21034;-47
2021/09/19 09:29:12;;;;;;;4.10;3.47;;;;;;;25.58;46.63;100948.52;1715278;83;21042;-48
2021/09/19 09:31:51;;;;;;;3.40;3.10;;;;;;;25.61;47.34;100946.95;1709940;83;21114;-47
2021/09/19 09:34:25;;;;;;;4.72;3.30;;;;;;;25.62;47.69;100947.30;1717297;83;21062;-48
2021/09/19 09:36:58;;;;;;;4.00;3.70;;;;;;;25.64;47.30;100944.03;1727935;83;21037;-50
2021/09/19 09:39:34;;;;;;;4.05;3.37;;;;;;;25.67;47.33;100942.94;1727607;83;21045;-48
2021/09/19 09:42:17;;;;;;;4.25;3.50;;;;;;;25.71;47.72;100940.38;1703712;83;21018;-48
2021/09/19 09:44:49;;;;;;;3.35;3.05;;;;;;;25.77;47.20;100946.06;1719257;83;20974;-50
2021/09/19 09:47:32;;;;;;;6.28;3.65;;;;;;;25.81;47.46;100938.17;1726357;83;21034;-48
2021/09/19 09:50:01;;;;;;;4.37;3.25;;;;;;;25.87;47.15;100939.95;1707489;83;21026;-49
2021/09/19 09:52:33;;;;;;;5.37;3.52;;;;;;;25.90;47.33;100939.24;1703665;83;21701;-50
2021/09/19 09:55:10;;;;;;;4.35;3.75;;;;;;;25.95;47.15;100934.84;1712866;83;21002;-49
2021/09/19 09:57:48;;;;;;;3.00;2.80;;;;;;;25.98;46.97;100935.45;1650342;86;21039;-49
2021/09/19 10:00:19;;;;;;;5.92;3.22;;;;;;;26.02;47.11;100936.89;1619609;88;21009;-48
2021/09/19 10:02:48;;;;;;;4.30;2.87;;;;;;;26.06;46.80;100934.81;1636561;87;21088;-49
2021/09/19 10:05:16;;;;;;;5.40;2.72;;;;;;;26.08;46.78;100928.89;1640353;87;21010;-49
2021/09/19 10:07:44;;;;;;;4.40;2.65;;;;;;;26.11;46.99;100933.98;1664880;86;21075;-49
2021/09/19 10:10:18;;;;;;;2.83;2.62;;;;;;;26.14;47.08;100931.05;1623391;88;21047;-49
2021/09/19 10:12:46;;;;;;;2.87;2.60;;;;;;;26.16;47.09;100935.77;1592692;89;21030;-50
2021/09/19 10:15:15;;;;;;;4.42;2.95;;;;;;;26.19;46.71;100931.52;1585297;89;21094;-49
2021/09/19 10:17:43;;;;;;;5.25;2.92;;;;;;;26.20;46.53;100925.19;1585467;89;21022;-49
2021/09/19 10:20:18;;;;;;;6.25;3.85;;;;;;;26.23;46.17;100934.29;1560569;90;21037;-48
2021/09/19 10:23:20;;;;;;;3.67;3.08;;;;;;;26.27;47.17;100921.05;1590998;87;21061;-50
2021/09/19 10:28:43;;;;;;;2.92;2.72;;;;;;;26.29;47.64;100916.43;1560061;90;21050;-50
2021/09/19 10:31:15;;;;;;;3.08;2.60;;;;;;;26.36;47.08;100914.92;1563370;90;21096;-49
2021/09/19 10:33:51;;;;;;;3.58;2.50;;;;;;;26.37;47.20;100913.95;1561143;92;21117;-49
2021/09/19 10:36:44;;;;;;;3.00;2.27;;;;;;;26.40;47.37;100912.34;1570537;90;21109;-49
2021/09/19 10:39:17;;;;;;;4.92;3.00;;;;;;;26.44;46.62;100917.30;1550542;91;21052;-51
2021/09/19 10:42:13;;;;;;;10.05;2.80;;;;;;;26.46;46.06;100918.52;1569703;90;21184;-50
2021/09/19 10:44:51;;;;;;;2.58;1.95;;;;;;;26.46;46.06;100918.52;1472350;96;21148;-49
2021/09/19 10:47:28;;;;;;;2.85;2.10;;;;;;;26.45;46.39;100913.67;1508760;93;21110;-47
2021/09/19 10:50:22;;;;;;;2.37;1.95;;;;;;;26.30;46.77;100916.30;1496219;94;21090;-50
2021/09/19 10:53:02;;;;;;;3.77;2.12;;;;;;;26.36;46.49;100913.10;1473178;96;21089;-51
2021/09/19 10:55:50;;;;;;;2.70;2.08;;;;;;;26.33;46.43;100907.19;1429010;99;21091;-49
2021/09/19 10:58:30;;;;;;;3.65;2.15;;;;;;;26.35;46.31;100914.09;1429120;99;21115;-48
2021/09/19 11:01:14;;;;;;;2.25;1.75;;;;;;;26.38;46.14;100907.63;1441739;98;21128;-48
2021/09/19 11:03:49;;;;;;;2.83;2.05;;;;;;;26.38;46.14;100907.63;1417420;101;21169;-51
2021/09/19 11:06:39;;;;;;;4.05;2.00;;;;;;;26.36;45.27;100901.58;1386060;102;21663;-49
2021/09/19 11:09:26;;;;;;;;;;;;;;;26.36;45.27;100901.58;1388281;101;21618;-50
2021/09/19 11:12:17;;;;;;;2.72;2.00;;;;;;;26.33;45.98;100905.38;1383319;103;20473;-48
2021/09/19 11:15:03;;;;;;;3.77;1.90;;;;;;;26.20;46.53;100898.52;1384737;103;21120;-50
2021/09/19 11:17:33;;;;;;;4.00;1.98;;;;;;;26.20;46.53;100898.52;1377480;102;21221;-49
2021/09/19 11:20:23;;;;;;;2.52;2.05;;;;;;;26.19;47.01;100908.84;1377792;102;21578;-50
2021/09/19 11:22:54;;;;;;;2.40;1.80;;;;;;;26.16;46.82;100897.09;1387993;102;21147;-49
2021/09/19 11:25:22;;;;;;;2.10;1.77;;;;;;;26.19;47.02;100896.36;1388885;102;21207;-51
2021/09/19 11:27:52;;;;;;;3.02;1.70;;;;;;;26.24;46.76;100903.47;1391601;102;21210;-50
2021/09/19 11:30:21;;;;;;;2.20;2.00;;;;;;;26.26;44.51;100890.84;1425140;100;21225;-49